Terminal Aerodrome Forecast
Issued by NWS Wakefield, VA

Home | Current Version | Previous Version | Text Only | Print | Product List | Glossary On
Versions: 1 2 3 4 5 6 7 8 9 10 11 12 13 14 15 16 17 18 19 20 21 22 23
024
FTUS41 KAKQ 192333
TAFORF
TAF
KORF 192333Z 2000/2024 36014G20KT P6SM VCSH SCT020 BKN045
      TEMPO 2000/2002 5SM -RA BR BKN020
     FM200500 31008KT P6SM BKN070
     FM201100 30011KT P6SM SCT060
     FM201800 30010KT P6SM SCT060=

USA.gov is the U.S. government's official web portal to all federal, state and local government web resources and services.